sensor_id;sensor_type;location;lat;lon;timestamp;pressure;altitude;pressure_sealevel;temperature;humidity
52745;BME280;38637;49.984;20.426;2024-03-08T00:00:02;100000.88;;;1.93;82.21
52745;BME280;38637;49.984;20.426;2024-03-08T00:02:36;100000.00;;;1.93;82.36
52745;BME280;38637;49.984;20.426;2024-03-08T00:05:03;100001.69;;;1.94;82.44
52745;BME280;38637;49.984;20.426;2024-03-08T00:07:28;99999.00;;;1.94;81.86
52745;BME280;38637;49.984;20.426;2024-03-08T00:09:53;100003.72;;;1.92;81.23
52745;BME280;38637;49.984;20.426;2024-03-08T00:12:19;100001.41;;;1.89;81.12
52745;BME280;38637;49.984;20.426;2024-03-08T00:14:45;99995.19;;;1.88;81.13
52745;BME280;38637;49.984;20.426;2024-03-08T00:17:10;99997.31;;;1.93;81.27
52745;BME280;38637;49.984;20.426;2024-03-08T00:19:36;99999.00;;;1.94;80.59
52745;BME280;38637;49.984;20.426;2024-03-08T00:22:02;99994.63;;;1.93;80.50
52745;BME280;38637;49.984;20.426;2024-03-08T00:24:27;100005.00;;;1.96;80.61
52745;BME280;38637;49.984;20.426;2024-03-08T00:26:54;100000.66;;;1.95;80.26
52745;BME280;38637;49.984;20.426;2024-03-08T00:29:20;100001.31;;;1.97;80.67
52745;BME280;38637;49.984;20.426;2024-03-08T00:31:45;99998.41;;;1.98;80.63
52745;BME280;38637;49.984;20.426;2024-03-08T00:34:10;99991.00;;;2.00;81.25
52745;BME280;38637;49.984;20.426;2024-03-08T00:36:37;99997.22;;;2.01;80.65
52745;BME280;38637;49.984;20.426;2024-03-08T00:39:02;99990.16;;;2.00;80.65
52745;BME280;38637;49.984;20.426;2024-03-08T00:41:31;99984.56;;;2.01;81.05
52745;BME280;38637;49.984;20.426;2024-03-08T00:43:56;99989.78;;;2.03;80.86
52745;BME280;38637;49.984;20.426;2024-03-08T00:46:22;99989.78;;;2.03;81.23
52745;BME280;38637;49.984;20.426;2024-03-08T00:48:47;99971.09;;;2.01;81.46
52745;BME280;38637;49.984;20.426;2024-03-08T00:51:13;99987.72;;;2.05;81.34
52745;BME280;38637;49.984;20.426;2024-03-08T00:53:40;99986.03;;;2.04;81.40
52745;BME280;38637;49.984;20.426;2024-03-08T00:56:07;99980.66;;;2.04;81.05
52745;BME280;38637;49.984;20.426;2024-03-08T00:58:36;99985.00;;;2.05;81.19
52745;BME280;38637;49.984;20.426;2024-03-08T01:01:01;99983.34;;;2.04;80.85
52745;BME280;38637;49.984;20.426;2024-03-08T01:03:27;99982.53;;;2.03;80.80
52745;BME280;38637;49.984;20.426;2024-03-08T01:05:52;99977.31;;;2.02;80.47
52745;BME280;38637;49.984;20.426;2024-03-08T01:08:18;99981.88;;;2.01;80.44
52745;BME280;38637;49.984;20.426;2024-03-08T01:10:43;99962.88;;;1.88;79.91
52745;BME280;38637;49.984;20.426;2024-03-08T01:13:08;99983.09;;;1.99;80.13
52745;BME280;38637;49.984;20.426;2024-03-08T01:15:34;99966.41;;;1.89;80.32
52745;BME280;38637;49.984;20.426;2024-03-08T01:18:00;99971.47;;;1.98;80.24
52745;BME280;38637;49.984;20.426;2024-03-08T01:20:26;99970.28;;;2.01;80.80
52745;BME280;38637;49.984;20.426;2024-03-08T01:22:53;99964.06;;;2.00;80.45
52745;BME280;38637;49.984;20.426;2024-03-08T01:25:18;99964.06;;;2.00;80.05
52745;BME280;38637;49.984;20.426;2024-03-08T01:27:44;99964.22;;;1.99;80.00
52745;BME280;38637;49.984;20.426;2024-03-08T01:30:09;99966.09;;;1.98;79.95
52745;BME280;38637;49.984;20.426;2024-03-08T01:32:35;99960.72;;;1.98;79.84
52745;BME280;38637;49.984;20.426;2024-03-08T01:35:01;99960.72;;;1.98;80.08
52745;BME280;38637;49.984;20.426;2024-03-08T01:37:27;99954.03;;;1.94;79.97
52745;BME280;38637;49.984;20.426;2024-03-08T01:39:54;99953.78;;;1.89;79.74
52745;BME280;38637;49.984;20.426;2024-03-08T01:42:20;99954.16;;;1.86;79.86
52745;BME280;38637;49.984;20.426;2024-03-08T01:44:45;99954.97;;;1.87;80.08
52745;BME280;38637;49.984;20.426;2024-03-08T01:47:11;99952.94;;;1.89;80.30
52745;BME280;38637;49.984;20.426;2024-03-08T01:49:37;99946.72;;;1.88;79.68
52745;BME280;38637;49.984;20.426;2024-03-08T01:52:03;99949.59;;;1.87;80.31
52745;BME280;38637;49.984;20.426;2024-03-08T01:54:29;99946.06;;;1.86;80.64
52745;BME280;38637;49.984;20.426;2024-03-08T01:56:56;99942.38;;;1.87;80.52
52745;BME280;38637;49.984;20.426;2024-03-08T01:59:24;99946.72;;;1.88;80.52
52745;BME280;38637;49.984;20.426;2024-03-08T02:01:54;99938.44;;;1.90;79.80
52745;BME280;38637;49.984;20.426;2024-03-08T02:04:20;99931.41;;;1.89;80.27
52745;BME280;38637;49.984;20.426;2024-03-08T02:06:46;99938.44;;;1.90;80.05
52745;BME280;38637;49.984;20.426;2024-03-08T02:09:13;99937.81;;;1.88;79.76
52745;BME280;38637;49.984;20.426;2024-03-08T02:11:42;99929.09;;;1.86;79.61
52745;BME280;38637;49.984;20.426;2024-03-08T02:14:08;99930.13;;;1.84;79.87
52745;BME280;38637;49.984;20.426;2024-03-08T02:16:34;99933.44;;;1.87;80.04
52745;BME280;38637;49.984;20.426;2024-03-08T02:19:00;99926.41;;;1.86;79.77
52745;BME280;38637;49.984;20.426;2024-03-08T02:21:25;99927.59;;;1.83;80.30
52745;BME280;38637;49.984;20.426;2024-03-08T02:23:51;99934.84;;;1.82;80.42
52745;BME280;38637;49.984;20.426;2024-03-08T02:26:17;99933.00;;;1.83;80.21
52745;BME280;38637;49.984;20.426;2024-03-08T02:28:44;99930.13;;;1.84;80.74
52745;BME280;38637;49.984;20.426;2024-03-08T02:31:10;99932.38;;;1.81;79.67
52745;BME280;38637;49.984;20.426;2024-03-08T02:33:35;99927.16;;;1.79;80.03
52745;BME280;38637;49.984;20.426;2024-03-08T02:36:01;99925.50;;;1.78;80.69
52745;BME280;38637;49.984;20.426;2024-03-08T02:38:26;99923.19;;;1.75;80.78
52745;BME280;38637;49.984;20.426;2024-03-08T02:40:53;99929.28;;;1.63;79.62
52745;BME280;38637;49.984;20.426;2024-03-08T02:43:19;99934.81;;;1.61;79.34
52745;BME280;38637;49.984;20.426;2024-03-08T02:45:45;99928.78;;;1.59;79.71
52745;BME280;38637;49.984;20.426;2024-03-08T02:48:11;99926.31;;;1.57;79.91
52745;BME280;38637;49.984;20.426;2024-03-08T02:50:37;99914.25;;;1.53;79.82
52745;BME280;38637;49.984;20.426;2024-03-08T02:53:03;99937.06;;;1.57;79.87
52745;BME280;38637;49.984;20.426;2024-03-08T02:55:28;99934.75;;;1.54;79.75
52745;BME280;38637;49.984;20.426;2024-03-08T02:57:54;99921.59;;;1.45;79.89
52745;BME280;38637;49.984;20.426;2024-03-08T03:00:20;99930.50;;;1.45;79.26
52745;BME280;38637;49.984;20.426;2024-03-08T03:02:46;99928.19;;;1.42;79.58
52745;BME280;38637;49.984;20.426;2024-03-08T03:05:12;99924.47;;;1.43;79.43
52745;BME280;38637;49.984;20.426;2024-03-08T03:07:38;99931.72;;;1.43;79.82
52745;BME280;38637;49.984;20.426;2024-03-08T03:10:04;99933.75;;;1.41;80.10
52745;BME280;38637;49.984;20.426;2024-03-08T03:12:30;99927.91;;;1.37;79.78
52745;BME280;38637;49.984;20.426;2024-03-08T03:14:57;99930.97;;;1.34;79.96
52745;BME280;38637;49.984;20.426;2024-03-08T03:17:26;99929.50;;;1.31;80.50
52745;BME280;38637;49.984;20.426;2024-03-08T03:19:52;99935.91;;;1.30;80.28
52745;BME280;38637;49.984;20.426;2024-03-08T03:22:18;99928.03;;;1.29;80.23
52745;BME280;38637;49.984;20.426;2024-03-08T03:24:44;99927.66;;;1.32;80.15
52745;BME280;38637;49.984;20.426;2024-03-08T03:27:11;99934.78;;;1.25;80.16
52745;BME280;38637;49.984;20.426;2024-03-08T03:29:41;99940.00;;;1.26;80.21
52745;BME280;38637;49.984;20.426;2024-03-08T03:32:11;99936.38;;;1.19;80.15
52745;BME280;38637;49.984;20.426;2024-03-08T03:34:37;99931.56;;;1.14;79.97
52745;BME280;38637;49.984;20.426;2024-03-08T03:37:05;99927.69;;;1.17;80.27
52745;BME280;38637;49.984;20.426;2024-03-08T03:39:32;99939.06;;;1.19;80.53
52745;BME280;38637;49.984;20.426;2024-03-08T03:41:59;99930.16;;;1.19;80.48
52745;BME280;38637;49.984;20.426;2024-03-08T03:44:29;99929.16;;;1.20;80.62
52745;BME280;38637;49.984;20.426;2024-03-08T03:46:55;99930.09;;;1.12;80.07
52745;BME280;38637;49.984;20.426;2024-03-08T03:49:20;99938.53;;;1.09;80.41
52745;BME280;38637;49.984;20.426;2024-03-08T03:51:46;99926.09;;;1.08;80.93
52745;BME280;38637;49.984;20.426;2024-03-08T03:54:12;99928.59;;;1.09;80.99
52745;BME280;38637;49.984;20.426;2024-03-08T03:56:37;99923.69;;;1.13;81.05
52745;BME280;38637;49.984;20.426;2024-03-08T03:59:03;99922.31;;;1.17;81.02
52745;BME280;38637;49.984;20.426;2024-03-08T04:01:28;99930.00;;;1.20;81.36
52745;BME280;38637;49.984;20.426;2024-03-08T04:03:54;99906.91;;;1.11;80.53
52745;BME280;38637;49.984;20.426;2024-03-08T04:06:20;99924.41;;;1.22;81.00
52745;BME280;38637;49.984;20.426;2024-03-08T04:08:45;99923.03;;;1.26;80.95
52745;BME280;38637;49.984;20.426;2024-03-08T04:11:11;99921.19;;;1.26;80.95
52745;BME280;38637;49.984;20.426;2024-03-08T04:13:36;99924.03;;;1.25;81.28
52745;BME280;38637;49.984;20.426;2024-03-08T04:16:03;99922.84;;;1.27;81.45
52745;BME280;38637;49.984;20.426;2024-03-08T04:18:28;99923.66;;;1.28;81.59
52745;BME280;38637;49.984;20.426;2024-03-08T04:20:53;99916.63;;;1.27;81.05
52745;BME280;38637;49.984;20.426;2024-03-08T04:23:19;99926.94;;;1.23;80.72
52745;BME280;38637;49.984;20.426;2024-03-08T04:25:45;99923.59;;;1.21;80.72
52745;BME280;38637;49.984;20.426;2024-03-08T04:28:10;99912.38;;;1.18;81.05
52745;BME280;38637;49.984;20.426;2024-03-08T04:30:40;99911.53;;;1.17;81.33
52745;BME280;38637;49.984;20.426;2024-03-08T04:33:05;99920.06;;;1.21;81.31
52745;BME280;38637;49.984;20.426;2024-03-08T04:35:32;99921.94;;;1.20;81.75
52745;BME280;38637;49.984;20.426;2024-03-08T04:37:57;99919.22;;;1.20;81.84
52745;BME280;38637;49.984;20.426;2024-03-08T04:40:23;99924.63;;;1.20;81.79
52745;BME280;38637;49.984;20.426;2024-03-08T04:42:49;99923.97;;;1.18;81.90
52745;BME280;38637;49.984;20.426;2024-03-08T04:45:16;99924.16;;;1.17;81.50
52745;BME280;38637;49.984;20.426;2024-03-08T04:47:41;99933.69;;;1.19;81.50
52745;BME280;38637;49.984;20.426;2024-03-08T04:50:07;99926.00;;;1.16;81.48
52745;BME280;38637;49.984;20.426;2024-03-08T04:52:34;99935.19;;;1.07;80.98
52745;BME280;38637;49.984;20.426;2024-03-08T04:54:59;99933.16;;;1.09;81.20
52745;BME280;38637;49.984;20.426;2024-03-08T04:57:24;99942.25;;;1.08;81.46
52745;BME280;38637;49.984;20.426;2024-03-08T04:59:50;99939.56;;;1.08;81.87
52745;BME280;38637;49.984;20.426;2024-03-08T05:02:16;99935.19;;;1.07;81.91
52745;BME280;38637;49.984;20.426;2024-03-08T05:04:42;99941.03;;;1.10;82.14
52745;BME280;38637;49.984;20.426;2024-03-08T05:07:07;99934.25;;;1.14;82.14
52745;BME280;38637;49.984;20.426;2024-03-08T05:09:33;99940.31;;;1.17;81.87
52745;BME280;38637;49.984;20.426;2024-03-08T05:11:59;99933.88;;;1.18;81.66
52745;BME280;38637;49.984;20.426;2024-03-08T05:14:24;99941.75;;;1.19;81.46
52745;BME280;38637;49.984;20.426;2024-03-08T05:16:50;99935.38;;;1.20;81.70
52745;BME280;38637;49.984;20.426;2024-03-08T05:19:16;99936.66;;;1.24;81.93
52745;BME280;38637;49.984;20.426;2024-03-08T05:21:43;99929.25;;;1.26;81.94
52745;BME280;38637;49.984;20.426;2024-03-08T05:24:09;99934.63;;;1.26;81.62
52745;BME280;38637;49.984;20.426;2024-03-08T05:26:35;99930.91;;;1.27;81.76
52745;BME280;38637;49.984;20.426;2024-03-08T05:29:00;99931.94;;;1.26;81.82
52745;BME280;38637;49.984;20.426;2024-03-08T05:31:26;99935.00;;;1.23;81.67
52745;BME280;38637;49.984;20.426;2024-03-08T05:33:51;99926.09;;;1.23;81.92
52745;BME280;38637;49.984;20.426;2024-03-08T05:36:19;99915.97;;;1.10;81.62
52745;BME280;38637;49.984;20.426;2024-03-08T05:38:44;99916.63;;;1.12;81.85
52745;BME280;38637;49.984;20.426;2024-03-08T05:41:10;99930.44;;;1.24;81.90
52745;BME280;38637;49.984;20.426;2024-03-08T05:43:37;99925.53;;;1.27;81.81
52745;BME280;38637;49.984;20.426;2024-03-08T05:46:02;99930.25;;;1.25;81.10
52745;BME280;38637;49.984;20.426;2024-03-08T05:48:29;99927.84;;;1.15;81.93
52745;BME280;38637;49.984;20.426;2024-03-08T05:50:57;99936.50;;;1.26;81.65
52745;BME280;38637;49.984;20.426;2024-03-08T05:53:22;99931.09;;;1.26;81.02
52745;BME280;38637;49.984;20.426;2024-03-08T05:55:48;99938.97;;;1.27;80.73
52745;BME280;38637;49.984;20.426;2024-03-08T05:58:14;99940.00;;;1.26;80.93
52745;BME280;38637;49.984;20.426;2024-03-08T06:00:39;99940.84;;;1.27;81.05
52745;BME280;38637;49.984;20.426;2024-03-08T06:03:05;99932.94;;;1.25;81.39
52745;BME280;38637;49.984;20.426;2024-03-08T06:05:30;99940.00;;;1.26;83.07
52745;BME280;38637;49.984;20.426;2024-03-08T06:07:56;99941.88;;;1.26;83.54
52745;BME280;38637;49.984;20.426;2024-03-08T06:10:21;99929.53;;;1.17;84.27
52745;BME280;38637;49.984;20.426;2024-03-08T06:12:47;99940.75;;;1.20;85.06
52745;BME280;38637;49.984;20.426;2024-03-08T06:15:12;99931.94;;;1.11;86.07
52745;BME280;38637;49.984;20.426;2024-03-08T06:17:41;99951.06;;;1.17;87.46
52745;BME280;38637;49.984;20.426;2024-03-08T06:20:07;99946.22;;;1.12;87.12
52745;BME280;38637;49.984;20.426;2024-03-08T06:22:42;99937.59;;;1.02;87.44
52745;BME280;38637;49.984;20.426;2024-03-08T06:25:08;99946.59;;;1.09;88.18
52745;BME280;38637;49.984;20.426;2024-03-08T06:27:34;99966.06;;;1.11;88.46
52745;BME280;38637;49.984;20.426;2024-03-08T06:30:00;99951.97;;;1.09;88.59
52745;BME280;38637;49.984;20.426;2024-03-08T06:32:25;99958.56;;;1.06;88.05
52745;BME280;38637;49.984;20.426;2024-03-08T06:34:50;99953.09;;;1.00;87.99
52745;BME280;38637;49.984;20.426;2024-03-08T06:37:16;99946.78;;;0.93;88.18
52745;BME280;38637;49.984;20.426;2024-03-08T06:39:49;99959.13;;;1.02;88.33
52745;BME280;38637;49.984;20.426;2024-03-08T06:42:16;99957.56;;;1.07;88.05
52745;BME280;38637;49.984;20.426;2024-03-08T06:44:42;99952.63;;;1.11;88.31
52745;BME280;38637;49.984;20.426;2024-03-08T06:47:14;99949.75;;;1.12;87.90
52745;BME280;38637;49.984;20.426;2024-03-08T06:49:40;99946.06;;;1.13;88.75
52745;BME280;38637;49.984;20.426;2024-03-08T06:52:06;99958.38;;;1.23;89.15
52745;BME280;38637;49.984;20.426;2024-03-08T06:54:32;99949.66;;;1.35;88.34
52745;BME280;38637;49.984;20.426;2024-03-08T06:56:57;99950.94;;;1.40;87.23
52745;BME280;38637;49.984;20.426;2024-03-08T06:59:22;99949.72;;;1.42;86.14
52745;BME280;38637;49.984;20.426;2024-03-08T07:01:48;99953.06;;;1.44;86.66
52745;BME280;38637;49.984;20.426;2024-03-08T07:04:13;99951.38;;;1.43;86.34
52745;BME280;38637;49.984;20.426;2024-03-08T07:06:38;99952.78;;;1.39;86.53
52745;BME280;38637;49.984;20.426;2024-03-08T07:09:06;99955.75;;;1.44;86.20
52745;BME280;38637;49.984;20.426;2024-03-08T07:11:31;99958.69;;;1.49;85.64
52745;BME280;38637;49.984;20.426;2024-03-08T07:13:56;99952.56;;;1.55;84.77
52745;BME280;38637;49.984;20.426;2024-03-08T07:16:23;99945.88;;;1.66;84.61
52745;BME280;38637;49.984;20.426;2024-03-08T07:18:49;99957.38;;;1.75;83.66
52745;BME280;38637;49.984;20.426;2024-03-08T07:21:17;99957.00;;;1.78;82.67
52745;BME280;38637;49.984;20.426;2024-03-08T07:23:43;99953.31;;;1.86;82.79
52745;BME280;38637;49.984;20.426;2024-03-08T07:26:19;99957.06;;;1.84;81.50
52745;BME280;38637;49.984;20.426;2024-03-08T07:28:45;99953.53;;;1.84;82.07
52745;BME280;38637;49.984;20.426;2024-03-08T07:31:10;99957.75;;;1.72;81.63
52745;BME280;38637;49.984;20.426;2024-03-08T07:33:50;99956.63;;;1.66;82.44
52745;BME280;38637;49.984;20.426;2024-03-08T07:36:16;99957.47;;;1.67;82.76
52745;BME280;38637;49.984;20.426;2024-03-08T07:38:41;99954.09;;;1.79;82.98
52745;BME280;38637;49.984;20.426;2024-03-08T07:41:07;99957.22;;;1.83;82.41
52745;BME280;38637;49.984;20.426;2024-03-08T07:43:32;99954.97;;;1.87;83.08
52745;BME280;38637;49.984;20.426;2024-03-08T07:45:58;99950.69;;;1.92;83.14
52745;BME280;38637;49.984;20.426;2024-03-08T07:48:23;99948.06;;;1.99;82.05
52745;BME280;38637;49.984;20.426;2024-03-08T07:50:48;99945.47;;;2.05;81.44
52745;BME280;38637;49.984;20.426;2024-03-08T07:53:15;99944.16;;;2.01;80.46
52745;BME280;38637;49.984;20.426;2024-03-08T07:55:40;99933.91;;;1.90;79.29
52745;BME280;38637;49.984;20.426;2024-03-08T07:58:07;99938.59;;;2.03;79.30
52745;BME280;38637;49.984;20.426;2024-03-08T08:00:36;99944.44;;;2.06;77.39
52745;BME280;38637;49.984;20.426;2024-03-08T08:03:02;99951.63;;;2.21;77.61
52745;BME280;38637;49.984;20.426;2024-03-08T08:05:27;99939.31;;;2.33;77.14
52745;BME280;38637;49.984;20.426;2024-03-08T08:07:52;99934.84;;;2.47;77.11
52745;BME280;38637;49.984;20.426;2024-03-08T08:10:18;99938.81;;;2.51;75.18
52745;BME280;38637;49.984;20.426;2024-03-08T08:12:47;99936.97;;;2.51;75.19
52745;BME280;38637;49.984;20.426;2024-03-08T08:15:12;99930.56;;;2.59;75.47
52745;BME280;38637;49.984;20.426;2024-03-08T08:17:38;99936.97;;;2.80;75.70
52745;BME280;38637;49.984;20.426;2024-03-08T08:20:04;99937.69;;;2.95;74.38
52745;BME280;38637;49.984;20.426;2024-03-08T08:22:30;99933.00;;;3.10;73.55
52745;BME280;38637;49.984;20.426;2024-03-08T08:24:56;99915.19;;;3.16;73.25
52745;BME280;38637;49.984;20.426;2024-03-08T08:27:21;99929.38;;;3.31;70.81
52745;BME280;38637;49.984;20.426;2024-03-08T08:29:46;99929.97;;;3.27;70.11
52745;BME280;38637;49.984;20.426;2024-03-08T08:32:12;99926.81;;;3.23;70.70
52745;BME280;38637;49.984;20.426;2024-03-08T08:34:37;99935.63;;;3.38;70.54
52745;BME280;38637;49.984;20.426;2024-03-08T08:37:02;99932.78;;;3.53;70.99
52745;BME280;38637;49.984;20.426;2024-03-08T08:39:27;99937.16;;;3.61;68.92
52745;BME280;38637;49.984;20.426;2024-03-08T08:41:53;99935.09;;;3.63;68.33
52745;BME280;38637;49.984;20.426;2024-03-08T08:44:18;99938.41;;;3.58;68.22
52745;BME280;38637;49.984;20.426;2024-03-08T08:46:43;99937.53;;;3.51;68.33
52745;BME280;38637;49.984;20.426;2024-03-08T08:49:09;99937.94;;;3.48;68.40
52745;BME280;38637;49.984;20.426;2024-03-08T08:51:36;99934.81;;;3.44;68.45
52745;BME280;38637;49.984;20.426;2024-03-08T08:54:02;99940.03;;;3.46;68.27
52745;BME280;38637;49.984;20.426;2024-03-08T08:56:27;99944.22;;;3.55;68.49
52745;BME280;38637;49.984;20.426;2024-03-08T08:58:54;99940.47;;;3.56;67.24
52745;BME280;38637;49.984;20.426;2024-03-08T09:01:20;99942.97;;;3.58;67.06
52745;BME280;38637;49.984;20.426;2024-03-08T09:03:45;99950.72;;;3.74;67.76
52745;BME280;38637;49.984;20.426;2024-03-08T09:06:15;99941.66;;;3.95;67.55
52745;BME280;38637;49.984;20.426;2024-03-08T09:08:41;99941.03;;;4.06;66.29
52745;BME280;38637;49.984;20.426;2024-03-08T09:11:07;99937.50;;;4.19;66.63
52745;BME280;38637;49.984;20.426;2024-03-08T09:13:32;99936.72;;;4.32;65.54
52745;BME280;38637;49.984;20.426;2024-03-08T09:15:59;99928.16;;;4.28;64.23
52745;BME280;38637;49.984;20.426;2024-03-08T09:18:24;99928.38;;;4.20;63.12
52745;BME280;38637;49.984;20.426;2024-03-08T09:20:50;99929.19;;;4.21;64.12
52745;BME280;38637;49.984;20.426;2024-03-08T09:23:19;99918.56;;;4.19;64.30
52745;BME280;38637;49.984;20.426;2024-03-08T09:25:44;99924.44;;;4.23;64.08
52745;BME280;38637;49.984;20.426;2024-03-08T09:28:10;99924.63;;;4.21;64.07
52745;BME280;38637;49.984;20.426;2024-03-08T09:30:37;99925.66;;;4.20;65.07
52745;BME280;38637;49.984;20.426;2024-03-08T09:33:03;99920.44;;;4.12;64.59
52745;BME280;38637;49.984;20.426;2024-03-08T09:35:29;99913.16;;;4.12;65.61
52745;BME280;38637;49.984;20.426;2024-03-08T09:37:55;99921.28;;;4.12;65.84
52745;BME280;38637;49.984;20.426;2024-03-08T09:40:21;99924.16;;;3.91;64.80
52745;BME280;38637;49.984;20.426;2024-03-08T09:42:49;99920.59;;;3.71;65.09
52745;BME280;38637;49.984;20.426;2024-03-08T09:45:14;99911.16;;;3.47;65.83
52745;BME280;38637;49.984;20.426;2024-03-08T09:47:42;99919.63;;;3.37;66.63
52745;BME280;38637;49.984;20.426;2024-03-08T09:50:08;99917.09;;;3.29;67.27
52745;BME280;38637;49.984;20.426;2024-03-08T09:52:37;99913.16;;;3.25;67.58
52745;BME280;38637;49.984;20.426;2024-03-08T09:55:05;99911.84;;;3.14;67.79
52745;BME280;38637;49.984;20.426;2024-03-08T09:57:32;99907.09;;;3.22;68.27
52745;BME280;38637;49.984;20.426;2024-03-08T09:59:57;99907.53;;;3.26;68.96
52745;BME280;38637;49.984;20.426;2024-03-08T10:02:22;99910.50;;;3.38;68.76
52745;BME280;38637;49.984;20.426;2024-03-08T10:04:48;99910.75;;;3.43;68.06
52745;BME280;38637;49.984;20.426;2024-03-08T10:07:14;99905.13;;;3.44;67.09
52745;BME280;38637;49.984;20.426;2024-03-08T10:09:39;99901.81;;;3.49;67.10
52745;BME280;38637;49.984;20.426;2024-03-08T10:12:07;99899.75;;;3.58;66.84
52745;BME280;38637;49.984;20.426;2024-03-08T10:14:34;99898.75;;;3.65;66.68
52745;BME280;38637;49.984;20.426;2024-03-08T10:17:00;99863.63;;;3.52;67.36
52745;BME280;38637;49.984;20.426;2024-03-08T10:19:26;99897.13;;;3.84;67.92
52745;BME280;38637;49.984;20.426;2024-03-08T10:21:52;99891.94;;;3.89;67.39
52745;BME280;38637;49.984;20.426;2024-03-08T10:24:23;99909.16;;;3.82;65.88
52745;BME280;38637;49.984;20.426;2024-03-08T10:26:52;99894.81;;;3.68;67.37
52745;BME280;38637;49.984;20.426;2024-03-08T10:29:18;99893.75;;;3.62;67.00
52745;BME280;38637;49.984;20.426;2024-03-08T10:31:43;99895.84;;;3.67;67.02
52745;BME280;38637;49.984;20.426;2024-03-08T10:34:10;99895.00;;;3.66;67.01
52745;BME280;38637;49.984;20.426;2024-03-08T10:36:35;99872.16;;;3.62;67.75
52745;BME280;38637;49.984;20.426;2024-03-08T10:39:03;99890.06;;;3.77;67.11
52745;BME280;38637;49.984;20.426;2024-03-08T10:41:36;99885.91;;;3.81;66.51
52745;BME280;38637;49.984;20.426;2024-03-08T10:47:00;99884.25;;;3.93;66.82
52745;BME280;38637;49.984;20.426;2024-03-08T10:49:43;99870.34;;;3.96;66.37
52745;BME280;38637;49.984;20.426;2024-03-08T10:52:23;99868.88;;;4.00;66.62
52745;BME280;38637;49.984;20.426;2024-03-08T10:54:52;99865.78;;;4.03;66.42
52745;BME280;38637;49.984;20.426;2024-03-08T10:57:20;99865.16;;;4.08;66.49
52745;BME280;38637;49.984;20.426;2024-03-08T10:59:49;99865.56;;;4.05;65.29
52745;BME280;38637;49.984;20.426;2024-03-08T11:02:16;99865.16;;;4.08;66.10
52745;BME280;38637;49.984;20.426;2024-03-08T11:04:49;99860.16;;;4.11;68.18
52745;BME280;38637;49.984;20.426;2024-03-08T11:07:15;99863.69;;;4.19;65.78
52745;BME280;38637;49.984;20.426;2024-03-08T11:09:47;99862.44;;;4.28;65.04
52745;BME280;38637;49.984;20.426;2024-03-08T11:12:24;99858.91;;;4.34;64.73
52745;BME280;38637;49.984;20.426;2024-03-08T11:15:01;99851.44;;;4.36;64.13
52745;BME280;38637;49.984;20.426;2024-03-08T11:19:58;99846.66;;;4.25;62.86
52745;BME280;38637;49.984;20.426;2024-03-08T11:22:31;99842.91;;;4.26;63.34
52745;BME280;38637;49.984;20.426;2024-03-08T11:25:09;99835.63;;;4.33;63.39
52745;BME280;38637;49.984;20.426;2024-03-08T11:27:38;99834.38;;;4.42;64.57
52745;BME280;38637;49.984;20.426;2024-03-08T11:30:05;99830.00;;;4.48;64.75
52745;BME280;38637;49.984;20.426;2024-03-08T11:32:38;99833.09;;;4.58;64.87
52745;BME280;38637;49.984;20.426;2024-03-08T11:35:07;99826.00;;;4.64;63.63
52745;BME280;38637;49.984;20.426;2024-03-08T11:37:34;99833.69;;;4.67;61.92
52745;BME280;38637;49.984;20.426;2024-03-08T11:40:00;99816.41;;;4.68;60.65
52745;BME280;38637;49.984;20.426;2024-03-08T11:42:29;99825.38;;;4.75;61.94
52745;BME280;38637;49.984;20.426;2024-03-08T11:44:55;99818.66;;;4.77;63.04
52745;BME280;38637;49.984;20.426;2024-03-08T11:47:22;99823.03;;;4.85;63.49
52745;BME280;38637;49.984;20.426;2024-03-08T11:49:47;99822.19;;;4.91;62.12
52745;BME280;38637;49.984;20.426;2024-03-08T11:52:15;99822.97;;;4.98;62.82
52745;BME280;38637;49.984;20.426;2024-03-08T11:54:42;99818.19;;;5.00;61.64
52745;BME280;38637;49.984;20.426;2024-03-08T11:57:08;99813.59;;;5.01;61.06
52745;BME280;38637;49.984;20.426;2024-03-08T11:59:35;99796.75;;;4.99;62.60
52745;BME280;38637;49.984;20.426;2024-03-08T12:02:03;99802.97;;;5.06;63.14
52745;BME280;38637;49.984;20.426;2024-03-08T12:04:28;99789.25;;;5.01;62.20
52745;BME280;38637;49.984;20.426;2024-03-08T12:06:54;99758.09;;;4.85;61.41
52745;BME280;38637;49.984;20.426;2024-03-08T12:09:19;99799.19;;;5.14;60.68
52745;BME280;38637;49.984;20.426;2024-03-08T12:11:48;99805.84;;;5.18;62.15
52745;BME280;38637;49.984;20.426;2024-03-08T12:14:14;99800.00;;;5.14;59.10
52745;BME280;38637;49.984;20.426;2024-03-08T12:16:39;99794.81;;;5.13;58.98
52745;BME280;38637;49.984;20.426;2024-03-08T12:19:05;99785.63;;;5.14;59.21
52745;BME280;38637;49.984;20.426;2024-03-08T12:21:31;99798.53;;;5.18;60.18
52745;BME280;38637;49.984;20.426;2024-03-08T12:24:08;99802.03;;;5.25;62.13
52745;BME280;38637;49.984;20.426;2024-03-08T12:26:36;99782.69;;;5.22;62.45
52745;BME280;38637;49.984;20.426;2024-03-08T12:29:15;99792.44;;;5.29;61.49
52745;BME280;38637;49.984;20.426;2024-03-08T12:31:45;99793.66;;;5.34;62.31
52745;BME280;38637;49.984;20.426;2024-03-08T12:34:11;99790.97;;;5.34;61.26
52745;BME280;38637;49.984;20.426;2024-03-08T12:36:44;99789.47;;;5.38;61.58
52745;BME280;38637;49.984;20.426;2024-03-08T12:39:10;99783.63;;;5.41;61.42
52745;BME280;38637;49.984;20.426;2024-03-08T12:41:40;99779.44;;;5.45;61.85
52745;BME280;38637;49.984;20.426;2024-03-08T12:44:06;99774.41;;;5.48;61.67
52745;BME280;38637;49.984;20.426;2024-03-08T12:46:32;99773.53;;;5.55;63.14
52745;BME280;38637;49.984;20.426;2024-03-08T12:48:58;99779.97;;;5.60;62.47
52745;BME280;38637;49.984;20.426;2024-03-08T12:51:24;99775.16;;;5.62;61.87
52745;BME280;38637;49.984;20.426;2024-03-08T12:53:50;99765.75;;;5.65;61.34
52745;BME280;38637;49.984;20.426;2024-03-08T12:56:29;99763.28;;;5.63;61.44
52745;BME280;38637;49.984;20.426;2024-03-08T12:58:56;99759.00;;;5.74;62.30
52745;BME280;38637;49.984;20.426;2024-03-08T13:01:21;99754.16;;;5.83;63.70